createdAt,value
2018-04-19T00:00:57.801Z,5.70
2018-04-19T00:03:31.440Z,5.40
2018-04-19T00:06:04.002Z,5.90
2018-04-19T00:08:36.491Z,5.80
2018-04-19T00:11:09.079Z,5.10
2018-04-19T00:13:41.564Z,5.30
2018-04-19T00:16:14.080Z,4.90
2018-04-19T00:18:46.574Z,4.93
2018-04-19T00:21:19.095Z,5.20
2018-04-19T00:23:51.600Z,4.67
2018-04-19T00:26:24.115Z,5.33
2018-04-19T00:28:56.607Z,5.50
2018-04-19T00:31:29.115Z,4.87
2018-04-19T00:34:02.460Z,5.67
2018-04-19T00:36:34.968Z,5.20
2018-04-19T00:39:07.463Z,4.50
2018-04-19T00:41:39.988Z,5.37
2018-04-19T00:44:12.504Z,5.17
2018-04-19T00:46:45.034Z,5.60
2018-04-19T00:49:17.575Z,5.07
2018-04-19T00:51:50.585Z,5.40
2018-04-19T00:54:23.072Z,5.07
2018-04-19T00:56:55.631Z,4.80
2018-04-19T00:59:28.223Z,5.70
2018-04-19T01:02:00.735Z,5.47
2018-04-19T01:04:33.224Z,5.27
2018-04-19T01:07:05.735Z,6.13
2018-04-19T01:09:38.223Z,5.10
2018-04-19T01:12:10.751Z,6.00
2018-04-19T01:14:43.343Z,5.30
2018-04-19T01:17:15.870Z,5.30
2018-04-19T01:19:48.411Z,7.53
2018-04-19T01:22:20.923Z,5.03
2018-04-19T01:24:53.417Z,5.20
2018-04-19T01:27:25.939Z,5.87
2018-04-19T01:29:58.546Z,5.40
2018-04-19T01:32:31.956Z,5.40
2018-04-19T01:35:04.467Z,5.37
2018-04-19T01:37:36.963Z,5.30
2018-04-19T01:40:09.512Z,5.27
2018-04-19T01:42:42.000Z,5.43
2018-04-19T01:45:14.584Z,5.33
2018-04-19T01:47:47.143Z,5.20
2018-04-19T01:50:19.661Z,6.33
2018-04-19T01:52:52.154Z,6.23
2018-04-19T01:55:24.667Z,5.70
2018-04-19T01:57:57.152Z,5.70
2018-04-19T02:00:29.808Z,5.10
2018-04-19T02:03:02.295Z,4.40
2018-04-19T02:05:34.859Z,6.03
2018-04-19T02:08:07.344Z,5.57
2018-04-19T02:10:39.850Z,5.57
2018-04-19T02:13:12.404Z,5.20
2018-04-19T02:15:44.915Z,5.40
2018-04-19T02:18:17.425Z,6.60
2018-04-19T02:20:49.926Z,6.03
2018-04-19T02:23:22.462Z,5.77
2018-04-19T02:25:54.974Z,5.60
2018-04-19T02:28:27.468Z,6.00
2018-04-19T02:31:00.466Z,6.00
2018-04-19T02:33:32.963Z,6.03
2018-04-19T02:36:05.477Z,6.27
2018-04-19T02:38:37.982Z,7.43
2018-04-19T02:41:10.499Z,6.07
2018-04-19T02:43:43.052Z,5.50
2018-04-19T02:46:15.564Z,5.80
2018-04-19T02:48:48.052Z,7.17
2018-04-19T02:51:20.599Z,7.17
2018-04-19T02:53:53.092Z,5.53
2018-04-19T02:56:25.616Z,6.30
2018-04-19T02:58:58.104Z,4.90
2018-04-19T03:01:31.090Z,5.80
2018-04-19T03:04:03.598Z,5.60
2018-04-19T03:06:36.115Z,5.47
2018-04-19T03:09:08.605Z,6.60
2018-04-19T03:11:41.189Z,6.17
2018-04-19T03:14:13.687Z,5.07
2018-04-19T03:16:46.194Z,5.40
2018-04-19T03:19:18.715Z,6.33
2018-04-19T03:21:51.240Z,5.60
2018-04-19T03:24:23.726Z,5.47
2018-04-19T03:26:57.118Z,4.67
2018-04-19T03:29:29.848Z,4.87
2018-04-19T03:32:02.371Z,5.07
2018-04-19T03:34:34.863Z,4.50
2018-04-19T03:37:07.459Z,4.97
2018-04-19T03:39:40.046Z,5.27
2018-04-19T03:42:12.677Z,5.43
2018-04-19T03:44:45.231Z,5.73
2018-04-19T03:47:17.755Z,5.90
2018-04-19T03:49:50.241Z,5.60
2018-04-19T03:52:22.760Z,4.77
2018-04-19T03:54:55.251Z,5.10
2018-04-19T03:57:27.847Z,5.13
2018-04-19T04:00:01.033Z,5.77
2018-04-19T04:02:33.634Z,5.50
2018-04-19T04:05:06.121Z,5.30
2018-04-19T04:07:38.710Z,6.70
2018-04-19T04:10:11.300Z,5.83
2018-04-19T04:12:43.810Z,6.23
2018-04-19T04:15:16.309Z,7.63
2018-04-19T04:18:01.083Z,6.60
2018-04-19T04:20:45.700Z,5.70
2018-04-19T04:23:30.988Z,5.30
2018-04-19T04:26:03.478Z,5.43
2018-04-19T04:28:35.987Z,5.33
2018-04-19T04:31:08.540Z,6.63
2018-04-19T04:33:41.034Z,6.77
2018-04-19T04:36:13.533Z,5.60
2018-04-19T04:38:46.039Z,5.47
2018-04-19T04:41:18.595Z,5.90
2018-04-19T04:43:51.142Z,6.33
2018-04-19T04:46:23.644Z,5.43
2018-04-19T04:48:56.247Z,5.93
2018-04-19T04:51:28.748Z,4.70
2018-04-19T04:54:02.082Z,5.60
2018-04-19T04:56:34.565Z,5.20
2018-04-19T04:59:07.076Z,5.60
2018-04-19T05:01:39.564Z,5.60
2018-04-19T05:04:12.179Z,4.93
2018-04-19T05:06:44.667Z,4.90
2018-04-19T05:09:17.172Z,4.83
2018-04-19T05:11:49.683Z,5.00
2018-04-19T05:14:22.217Z,4.10
2018-04-19T05:16:54.710Z,3.80
2018-04-19T05:19:27.223Z,4.53
2018-04-19T05:21:59.832Z,3.78
2018-04-19T05:24:32.344Z,4.35
2018-04-19T05:27:04.839Z,4.20
2018-04-19T05:29:37.354Z,4.43
2018-04-19T05:32:09.857Z,4.60
2018-04-19T05:34:42.375Z,4.80
2018-04-19T05:37:14.874Z,3.92
2018-04-19T05:39:47.395Z,4.60
2018-04-19T05:42:19.892Z,4.40
2018-04-19T05:44:52.403Z,5.20
2018-04-19T05:47:25.003Z,4.40
2018-04-19T05:49:57.515Z,4.75
2018-04-19T05:52:30.587Z,4.85
2018-04-19T05:55:03.106Z,5.25
2018-04-19T05:57:35.602Z,5.62
2018-04-19T06:00:08.128Z,6.20
2018-04-19T06:02:40.632Z,6.28
2018-04-19T06:05:13.147Z,7.25
2018-04-19T06:07:45.640Z,7.53
2018-04-19T06:10:18.157Z,7.55
2018-04-19T06:12:50.685Z,8.35
2018-04-19T06:15:23.206Z,8.23
2018-04-19T06:17:55.704Z,8.40
2018-04-19T06:20:28.223Z,8.55
2018-04-19T06:23:00.767Z,8.27
2018-04-19T06:25:33.283Z,9.45
2018-04-19T06:28:05.889Z,8.95
2018-04-19T06:30:38.473Z,8.70
2018-04-19T06:33:10.982Z,8.98
2018-04-19T06:35:43.534Z,8.77
2018-04-19T06:38:16.027Z,9.10
2018-04-19T06:40:48.609Z,8.85
2018-04-19T06:43:21.188Z,9.70
2018-04-19T06:45:53.778Z,8.95
2018-04-19T06:48:26.280Z,10.05
2018-04-19T06:50:58.851Z,9.77
2018-04-19T06:53:31.927Z,10.02
2018-04-19T06:56:04.455Z,10.00
2018-04-19T06:58:36.959Z,11.10
2018-04-19T07:01:09.490Z,11.55
2018-04-19T07:03:42.083Z,10.70
2018-04-19T07:06:14.671Z,11.00
2018-04-19T07:08:47.259Z,11.30
2018-04-19T07:11:19.781Z,12.25
2018-04-19T07:13:52.331Z,10.98
2018-04-19T07:16:24.852Z,12.10
2018-04-19T07:18:57.400Z,12.85
2018-04-19T07:21:30.715Z,12.35
2018-04-19T07:24:03.210Z,12.37
2018-04-19T07:26:35.727Z,12.82
2018-04-19T07:29:08.258Z,12.88
2018-04-19T07:31:40.791Z,13.20
2018-04-19T07:34:13.322Z,13.45
2018-04-19T07:36:45.823Z,12.60
2018-04-19T07:39:18.392Z,12.77
2018-04-19T07:41:51.488Z,13.25
2018-04-19T07:44:24.019Z,13.38
2018-04-19T07:46:56.555Z,13.00
2018-04-19T07:49:29.144Z,13.55
2018-04-19T07:52:02.366Z,13.18
2018-04-19T07:54:34.902Z,12.57
2018-04-19T07:57:07.422Z,12.73
2018-04-19T07:59:40.000Z,11.93
2018-04-19T08:02:12.513Z,12.35
2018-04-19T08:04:45.033Z,12.63
2018-04-19T08:07:17.555Z,11.88
2018-04-19T08:09:50.077Z,12.18
2018-04-19T08:12:22.611Z,12.37
2018-04-19T08:14:55.132Z,11.55
2018-04-19T08:17:27.628Z,11.68
2018-04-19T08:20:00.776Z,11.82
2018-04-19T08:22:33.375Z,11.90
2018-04-19T08:25:05.968Z,11.07
2018-04-19T08:27:38.496Z,11.35
2018-04-19T08:30:11.016Z,11.82
2018-04-19T08:32:43.615Z,11.27
2018-04-19T08:35:16.143Z,12.30
2018-04-19T08:37:48.638Z,12.25
2018-04-19T08:40:21.176Z,12.13
2018-04-19T08:42:53.763Z,11.70
2018-04-19T08:45:26.347Z,11.93
2018-04-19T08:47:58.931Z,11.70
2018-04-19T08:50:32.327Z,12.43
2018-04-19T08:53:04.919Z,12.05
2018-04-19T08:55:37.443Z,11.43
2018-04-19T08:58:09.947Z,11.20
2018-04-19T09:00:42.464Z,12.48
2018-04-19T09:03:15.062Z,12.60
2018-04-19T09:05:47.585Z,11.85
2018-04-19T09:08:20.088Z,12.77
2018-04-19T09:10:52.605Z,13.30
2018-04-19T09:13:25.115Z,13.45
2018-04-19T09:15:57.637Z,13.90
2018-04-19T09:18:30.851Z,13.70
2018-04-19T09:21:03.392Z,14.95
2018-04-19T09:23:35.951Z,13.57
2018-04-19T09:26:08.542Z,12.85
2018-04-19T09:28:41.051Z,14.43
2018-04-19T09:31:13.583Z,13.10
2018-04-19T09:33:46.191Z,14.10
2018-04-19T09:36:18.720Z,12.13
2018-04-19T09:38:51.265Z,13.80
2018-04-19T09:41:23.795Z,12.43
2018-04-19T09:43:56.303Z,12.57
2018-04-19T09:46:28.827Z,12.15
2018-04-19T09:49:02.013Z,12.20
2018-04-19T09:51:34.534Z,13.27
2018-04-19T09:54:07.117Z,12.35
2018-04-19T09:56:39.582Z,12.23
2018-04-19T09:59:12.868Z,14.07
2018-04-19T10:01:51.491Z,12.77
2018-04-19T10:04:30.919Z,13.18
2018-04-19T10:07:03.458Z,13.07
2018-04-19T10:09:35.971Z,12.77
2018-04-19T10:12:08.501Z,11.63
2018-04-19T10:14:41.087Z,12.70
2018-04-19T10:17:13.669Z,11.60
2018-04-19T10:19:46.214Z,12.90
2018-04-19T10:22:18.843Z,11.32
2018-04-19T10:24:51.424Z,10.13
2018-04-19T10:27:24.079Z,11.60
2018-04-19T10:29:56.591Z,11.70
2018-04-19T10:32:29.123Z,12.20
2018-04-19T10:35:02.294Z,11.38
2018-04-19T10:37:34.793Z,11.68
2018-04-19T10:40:07.324Z,10.50
2018-04-19T10:42:39.937Z,11.63
2018-04-19T10:45:12.523Z,10.15
2018-04-19T10:47:45.023Z,10.88
2018-04-19T10:50:17.541Z,9.30
2018-04-19T10:52:50.039Z,10.10
2018-04-19T10:55:22.665Z,9.77
2018-04-19T10:57:55.170Z,9.00
2018-04-19T11:00:27.733Z,9.40
2018-04-19T11:03:00.639Z,8.38
2018-04-19T11:05:33.159Z,8.30
2018-04-19T11:08:05.658Z,8.98
2018-04-19T11:10:38.174Z,9.70
2018-04-19T11:13:10.758Z,9.60
2018-04-19T11:15:43.342Z,11.93
2018-04-19T11:18:15.884Z,11.82
2018-04-19T11:20:48.412Z,10.40
2018-04-19T11:23:21.003Z,8.60
2018-04-19T11:25:53.526Z,8.70
2018-04-19T11:28:26.073Z,10.35
2018-04-19T11:30:58.711Z,9.48
2018-04-19T11:33:31.803Z,9.88
2018-04-19T11:36:04.352Z,10.75
2018-04-19T11:38:36.938Z,9.82
2018-04-19T11:41:09.467Z,10.57
2018-04-19T11:43:42.007Z,10.73
2018-04-19T11:46:14.588Z,9.27
2018-04-19T11:48:47.106Z,9.68
2018-04-19T11:51:19.624Z,9.40
2018-04-19T11:53:52.147Z,10.60
2018-04-19T11:56:24.741Z,9.93
2018-04-19T11:58:57.320Z,8.68
2018-04-19T12:01:29.928Z,9.07
2018-04-19T12:04:02.431Z,8.73
2018-04-19T12:06:34.956Z,7.43
2018-04-19T12:09:07.449Z,7.00
2018-04-19T12:11:39.971Z,7.40
2018-04-19T12:14:12.537Z,6.22
2018-04-19T12:16:45.053Z,6.80
2018-04-19T12:19:17.644Z,6.70
2018-04-19T12:21:50.188Z,7.45
2018-04-19T12:24:22.771Z,7.32
2018-04-19T12:26:55.280Z,7.78
2018-04-19T12:29:27.771Z,7.07
2018-04-19T12:32:00.657Z,7.80
2018-04-19T12:34:33.151Z,7.18
2018-04-19T12:37:05.663Z,7.12
2018-04-19T12:39:38.201Z,6.37
2018-04-19T12:42:10.714Z,7.30
2018-04-19T12:44:43.212Z,7.43
2018-04-19T12:47:15.719Z,6.28
2018-04-19T12:49:48.211Z,7.10
2018-04-19T12:52:20.725Z,6.00
2018-04-19T12:54:53.224Z,6.25
2018-04-19T12:57:25.752Z,6.43
2018-04-19T12:59:58.266Z,5.18
2018-04-19T13:02:30.863Z,5.80
2018-04-19T13:05:03.360Z,5.72
2018-04-19T13:07:35.880Z,5.70
2018-04-19T13:10:08.414Z,5.25
2018-04-19T13:12:40.997Z,7.03
2018-04-19T13:15:13.518Z,5.40
2018-04-19T13:17:46.027Z,5.53
2018-04-19T13:20:18.515Z,6.00
2018-04-19T13:22:51.031Z,5.68
2018-04-19T13:25:23.539Z,5.97
2018-04-19T13:27:56.056Z,5.87
2018-04-19T13:30:28.598Z,6.68
2018-04-19T13:33:01.920Z,5.57
2018-04-19T13:35:34.425Z,7.80
2018-04-19T13:38:06.982Z,6.10
2018-04-19T13:40:39.481Z,9.68
2018-04-19T13:43:11.994Z,7.57
2018-04-19T13:45:44.496Z,8.07
2018-04-19T13:48:17.024Z,7.55
2018-04-19T13:50:49.579Z,6.97
2018-04-19T13:53:22.088Z,6.12
2018-04-19T13:55:54.603Z,7.05
2018-04-19T13:58:27.115Z,5.87
2018-04-19T14:00:59.786Z,8.05
2018-04-19T14:03:32.307Z,7.93
2018-04-19T14:06:04.833Z,10.18
2018-04-19T14:08:37.391Z,9.90
2018-04-19T14:11:09.897Z,8.00
2018-04-19T14:13:42.477Z,6.90
2018-04-19T14:16:14.996Z,7.97
2018-04-19T14:18:47.533Z,9.52
2018-04-19T14:21:20.062Z,9.15
2018-04-19T14:23:52.600Z,8.73
2018-04-19T14:26:25.124Z,8.70
2018-04-19T14:28:57.625Z,8.10
2018-04-19T14:31:30.800Z,7.47
2018-04-19T14:34:03.291Z,9.30
2018-04-19T14:36:35.802Z,8.35
2018-04-19T14:39:08.296Z,6.70
2018-04-19T14:41:40.801Z,8.07
2018-04-19T14:44:13.306Z,8.63
2018-04-19T14:46:45.875Z,6.55
2018-04-19T14:49:18.409Z,6.93
2018-04-19T14:51:50.909Z,8.70
2018-04-19T14:54:23.400Z,9.57
2018-04-19T14:56:55.923Z,9.50
2018-04-19T14:59:28.423Z,7.90
2018-04-19T15:02:00.932Z,7.70
2018-04-19T15:04:33.435Z,7.78
2018-04-19T15:07:06.063Z,8.75
2018-04-19T15:09:38.561Z,7.90
2018-04-19T15:12:11.119Z,9.10
2018-04-19T15:14:43.607Z,7.87
2018-04-19T15:17:16.146Z,9.20
2018-04-19T15:19:48.638Z,8.77
2018-04-19T15:22:21.158Z,8.98
2018-04-19T15:24:53.738Z,8.15
2018-04-19T15:27:26.263Z,9.60
2018-04-19T15:29:58.807Z,9.23
2018-04-19T15:32:32.214Z,8.40
2018-04-19T15:35:04.765Z,8.00
2018-04-19T15:37:37.284Z,8.05
2018-04-19T15:40:09.787Z,8.75
2018-04-19T15:42:42.307Z,7.75
2018-04-19T15:45:14.841Z,8.75
2018-04-19T15:47:47.375Z,8.05
2018-04-19T15:50:19.908Z,7.47
2018-04-19T15:52:52.517Z,8.05
2018-04-19T15:55:25.087Z,7.95
2018-04-19T15:57:57.611Z,8.05
2018-04-19T16:00:30.760Z,8.15
2018-04-19T16:03:03.279Z,7.30
2018-04-19T16:05:35.772Z,6.85
2018-04-19T16:08:08.331Z,7.97
2018-04-19T16:10:40.830Z,7.78
2018-04-19T16:13:13.345Z,8.63
2018-04-19T16:15:45.857Z,7.47
2018-04-19T16:18:18.376Z,6.37
2018-04-19T16:20:50.879Z,7.00
2018-04-19T16:23:23.471Z,8.32
2018-04-19T16:25:55.962Z,8.55
2018-04-19T16:28:28.481Z,8.38
2018-04-19T16:31:01.911Z,7.47
2018-04-19T16:33:34.555Z,7.35
2018-04-19T16:36:07.015Z,7.45
2018-04-19T16:38:39.591Z,8.20
2018-04-19T16:41:12.136Z,7.97
2018-04-19T16:43:44.647Z,8.93
2018-04-19T16:46:17.139Z,8.52
2018-04-19T16:48:49.659Z,8.00
2018-04-19T16:51:22.279Z,8.18
2018-04-19T16:53:54.871Z,8.05
2018-04-19T16:56:27.439Z,7.65
2018-04-19T16:59:00.538Z,8.75
2018-04-19T17:01:33.039Z,8.35
2018-04-19T17:04:05.557Z,8.40
2018-04-19T17:06:38.058Z,7.43
2018-04-19T17:09:10.616Z,7.72
2018-04-19T17:11:43.284Z,8.77
2018-04-19T17:14:15.807Z,8.02
2018-04-19T17:16:48.299Z,8.23
2018-04-19T17:19:20.856Z,7.87
2018-04-19T17:21:53.416Z,7.70
2018-04-19T17:24:25.900Z,7.75
2018-04-19T17:26:58.484Z,7.22
2018-04-19T17:29:31.899Z,7.68
2018-04-19T17:32:04.482Z,7.40
2018-04-19T17:34:37.183Z,6.93
2018-04-19T17:37:09.840Z,7.40
2018-04-19T17:39:42.544Z,7.43
2018-04-19T17:42:15.126Z,7.87
2018-04-19T17:44:47.616Z,6.95
2018-04-19T17:47:20.166Z,6.75
2018-04-19T17:49:52.689Z,7.80
2018-04-19T17:52:25.210Z,7.62
2018-04-19T17:54:57.727Z,7.40
2018-04-19T17:57:30.967Z,6.40
2018-04-19T18:00:03.479Z,6.10
2018-04-19T18:02:36.331Z,6.43
2018-04-19T18:05:08.904Z,6.62
2018-04-19T18:07:41.510Z,7.00
2018-04-19T18:10:14.053Z,6.50
2018-04-19T18:12:46.577Z,6.20
2018-04-19T18:15:19.243Z,6.50
2018-04-19T18:17:51.764Z,6.20
2018-04-19T18:20:24.260Z,6.32
2018-04-19T18:22:56.784Z,6.65
2018-04-19T18:25:29.303Z,6.28
2018-04-19T18:28:02.086Z,6.28
2018-04-19T18:30:34.739Z,7.28
2018-04-19T18:33:07.251Z,6.72
2018-04-19T18:35:39.749Z,6.37
2018-04-19T18:38:12.272Z,6.35
2018-04-19T18:40:44.767Z,6.37
2018-04-19T18:43:17.295Z,6.95
2018-04-19T18:45:49.788Z,6.35
2018-04-19T18:48:22.362Z,6.80
2018-04-19T18:50:54.950Z,6.45
2018-04-19T18:53:27.554Z,6.40
2018-04-19T18:56:00.684Z,6.70
2018-04-19T18:58:33.214Z,7.05
2018-04-19T19:01:05.706Z,6.57
2018-04-19T19:03:38.240Z,7.30
2018-04-19T19:06:10.890Z,7.30
2018-04-19T19:08:43.518Z,6.93
2018-04-19T19:11:16.162Z,7.03
2018-04-19T19:13:48.721Z,6.85
2018-04-19T19:16:21.323Z,7.15
2018-04-19T19:19:05.883Z,7.15
2018-04-19T19:21:38.381Z,6.75
2018-04-19T19:24:10.916Z,6.90
2018-04-19T19:26:43.552Z,6.07
2018-04-19T19:29:16.069Z,6.45
2018-04-19T19:31:48.559Z,6.72
2018-04-19T19:34:21.109Z,7.10
2018-04-19T19:36:53.679Z,7.25
2018-04-19T19:39:26.383Z,6.72
2018-04-19T19:41:58.875Z,6.85
2018-04-19T19:44:32.143Z,7.15
2018-04-19T19:47:04.758Z,6.40
2018-04-19T19:49:37.435Z,6.87
2018-04-19T19:52:10.024Z,7.12
2018-04-19T19:54:42.731Z,6.95
2018-04-19T19:57:15.254Z,6.47
2018-04-19T19:59:47.766Z,6.87
2018-04-19T20:02:20.372Z,7.53
2018-04-19T20:04:52.912Z,8.20
2018-04-19T20:07:25.415Z,7.72
2018-04-19T20:09:57.937Z,8.15
2018-04-19T20:12:31.566Z,7.85
2018-04-19T20:15:04.090Z,8.27
2018-04-19T20:17:36.603Z,8.05
2018-04-19T20:20:09.120Z,8.23
2018-04-19T20:22:41.629Z,8.98
2018-04-19T20:25:14.159Z,8.43
2018-04-19T20:27:46.650Z,7.93
2018-04-19T20:30:19.175Z,8.40
2018-04-19T20:32:51.729Z,8.07
2018-04-19T20:35:24.260Z,8.30
2018-04-19T20:37:56.790Z,7.95
2018-04-19T20:40:29.356Z,8.32
2018-04-19T20:43:02.195Z,7.43
2018-04-19T20:45:34.720Z,7.95
2018-04-19T20:48:07.216Z,7.78
2018-04-19T20:50:39.726Z,7.85
2018-04-19T20:53:12.312Z,8.48
2018-04-19T20:55:44.823Z,8.35
2018-04-19T20:58:17.380Z,9.00
2018-04-19T21:00:49.966Z,8.73
2018-04-19T21:03:22.546Z,8.63
2018-04-19T21:05:55.060Z,8.85
2018-04-19T21:08:27.624Z,8.65
2018-04-19T21:11:00.291Z,8.50
2018-04-19T21:13:32.806Z,9.43
2018-04-19T21:16:05.327Z,8.63
2018-04-19T21:18:37.859Z,9.00
2018-04-19T21:21:10.446Z,9.07
2018-04-19T21:23:42.968Z,9.07
2018-04-19T21:26:15.463Z,8.02
2018-04-19T21:28:47.979Z,9.20
2018-04-19T21:31:20.492Z,8.32
2018-04-19T21:33:53.021Z,9.25
2018-04-19T21:36:25.515Z,8.55
2018-04-19T21:38:58.029Z,9.30
2018-04-19T21:41:30.857Z,9.07
2018-04-19T21:44:03.403Z,8.82
2018-04-19T21:46:35.899Z,9.98
2018-04-19T21:49:08.467Z,9.27
2018-04-19T21:51:40.984Z,8.98
2018-04-19T21:54:13.551Z,9.55
2018-04-19T21:56:46.051Z,10.35
2018-04-19T21:59:18.621Z,10.02
2018-04-19T22:01:51.498Z,9.73
2018-04-19T22:04:24.012Z,9.55
2018-04-19T22:06:56.520Z,10.32
2018-04-19T22:09:29.062Z,9.05
2018-04-19T22:12:02.488Z,8.90
2018-04-19T22:14:35.055Z,9.50
2018-04-19T22:17:07.555Z,10.20
2018-04-19T22:19:40.079Z,8.95
2018-04-19T22:22:12.584Z,10.02
2018-04-19T22:24:45.090Z,9.80
2018-04-19T22:27:17.688Z,9.85
2018-04-19T22:29:50.282Z,10.43
2018-04-19T22:32:22.812Z,10.13
2018-04-19T22:34:55.332Z,11.02
2018-04-19T22:37:27.834Z,10.20
2018-04-19T22:40:01.524Z,9.18
2018-04-19T22:42:34.033Z,10.13
2018-04-19T22:45:06.627Z,9.82
2018-04-19T22:47:39.191Z,10.35
2018-04-19T22:50:11.775Z,10.77
2018-04-19T22:52:44.358Z,10.27
2018-04-19T22:55:16.872Z,9.32
2018-04-19T22:57:49.372Z,10.35
2018-04-19T23:00:22.651Z,13.27
2018-04-19T23:02:55.155Z,10.35
2018-04-19T23:05:27.681Z,10.27
2018-04-19T23:08:00.921Z,10.20
2018-04-19T23:10:33.490Z,10.18
2018-04-19T23:13:05.992Z,11.00
2018-04-19T23:15:38.520Z,9.63
2018-04-19T23:18:11.047Z,9.85
2018-04-19T23:20:43.575Z,11.23
2018-04-19T23:23:16.084Z,10.57
2018-04-19T23:25:48.597Z,9.95
2018-04-19T23:28:21.181Z,10.07
2018-04-19T23:30:53.755Z,9.95
2018-04-19T23:33:26.268Z,10.77
2018-04-19T23:35:58.791Z,10.57
2018-04-19T23:38:32.112Z,10.63
2018-04-19T23:41:04.632Z,11.73
2018-04-19T23:43:37.195Z,10.73
2018-04-19T23:46:09.778Z,10.27
2018-04-19T23:48:42.271Z,10.48
2018-04-19T23:51:14.793Z,11.20
2018-04-19T23:53:47.301Z,11.10
2018-04-19T23:56:19.987Z,11.10
2018-04-19T23:58:52.507Z,11.23
